sensor_id;sensor_type;location;lat;lon;timestamp;temperature;humidity
27376;DHT22;14844;51.302;6.354;2022-11-11T00:02:02;6.90;99.90
27376;DHT22;14844;51.302;6.354;2022-11-11T00:04:27;6.90;99.90
27376;DHT22;14844;51.302;6.354;2022-11-11T00:06:53;6.90;99.90
27376;DHT22;14844;51.302;6.354;2022-11-11T00:09:18;6.90;99.90
27376;DHT22;14844;51.302;6.354;2022-11-11T00:11:44;6.80;99.90
27376;DHT22;14844;51.302;6.354;2022-11-11T00:14:10;6.80;99.90
27376;DHT22;14844;51.302;6.354;2022-11-11T00:16:35;6.70;99.90
27376;DHT22;14844;51.302;6.354;2022-11-11T00:19:19;6.60;99.90
27376;DHT22;14844;51.302;6.354;2022-11-11T00:22:03;6.60;99.90
27376;DHT22;14844;51.302;6.354;2022-11-11T00:24:47;6.50;99.90
27376;DHT22;14844;51.302;6.354;2022-11-11T00:27:31;6.50;99.90
27376;DHT22;14844;51.302;6.354;2022-11-11T00:29:56;6.40;99.90
27376;DHT22;14844;51.302;6.354;2022-11-11T00:32:22;6.40;99.90
27376;DHT22;14844;51.302;6.354;2022-11-11T00:34:49;6.40;99.90
27376;DHT22;14844;51.302;6.354;2022-11-11T00:37:33;6.30;99.90
27376;DHT22;14844;51.302;6.354;2022-11-11T00:39:59;6.30;99.90
27376;DHT22;14844;51.302;6.354;2022-11-11T00:42:25;6.20;99.90
27376;DHT22;14844;51.302;6.354;2022-11-11T00:44:51;6.20;99.90
27376;DHT22;14844;51.302;6.354;2022-11-11T00:47:16;6.30;99.90
27376;DHT22;14844;51.302;6.354;2022-11-11T00:50:09;6.20;99.90
27376;DHT22;14844;51.302;6.354;2022-11-11T00:52:54;6.20;99.90
27376;DHT22;14844;51.302;6.354;2022-11-11T00:55:19;6.40;99.90
27376;DHT22;14844;51.302;6.354;2022-11-11T00:57:45;6.40;99.90
27376;DHT22;14844;51.302;6.354;2022-11-11T01:00:11;6.40;99.90
27376;DHT22;14844;51.302;6.354;2022-11-11T01:02:37;6.40;99.90
27376;DHT22;14844;51.302;6.354;2022-11-11T01:05:02;6.40;99.90
27376;DHT22;14844;51.302;6.354;2022-11-11T01:07:28;6.40;99.90
27376;DHT22;14844;51.302;6.354;2022-11-11T01:09:54;6.40;99.90
27376;DHT22;14844;51.302;6.354;2022-11-11T01:12:19;6.40;99.90
27376;DHT22;14844;51.302;6.354;2022-11-11T01:14:45;6.40;99.90
27376;DHT22;14844;51.302;6.354;2022-11-11T01:17:10;6.30;99.90
27376;DHT22;14844;51.302;6.354;2022-11-11T01:19:36;6.20;99.90
27376;DHT22;14844;51.302;6.354;2022-11-11T01:22:02;6.10;99.90
27376;DHT22;14844;51.302;6.354;2022-11-11T01:24:27;6.00;99.90
27376;DHT22;14844;51.302;6.354;2022-11-11T01:26:53;6.10;99.90
27376;DHT22;14844;51.302;6.354;2022-11-11T01:29:18;6.00;99.90
27376;DHT22;14844;51.302;6.354;2022-11-11T01:31:44;6.10;99.90
27376;DHT22;14844;51.302;6.354;2022-11-11T01:34:10;6.10;99.90
27376;DHT22;14844;51.302;6.354;2022-11-11T01:36:35;6.00;99.90
27376;DHT22;14844;51.302;6.354;2022-11-11T01:39:01;6.00;99.90
27376;DHT22;14844;51.302;6.354;2022-11-11T01:41:32;5.90;99.90
27376;DHT22;14844;51.302;6.354;2022-11-11T01:46:49;6.00;99.90
27376;DHT22;14844;51.302;6.354;2022-11-11T01:49:28;6.00;99.90
27376;DHT22;14844;51.302;6.354;2022-11-11T01:52:03;6.10;99.90
27376;DHT22;14844;51.302;6.354;2022-11-11T01:54:44;6.30;99.90
27376;DHT22;14844;51.302;6.354;2022-11-11T01:57:12;6.30;99.90
27376;DHT22;14844;51.302;6.354;2022-11-11T01:59:40;6.50;99.90
27376;DHT22;14844;51.302;6.354;2022-11-11T02:02:27;6.70;99.90
27376;DHT22;14844;51.302;6.354;2022-11-11T02:04:55;6.80;99.90
27376;DHT22;14844;51.302;6.354;2022-11-11T02:07:40;7.00;99.90
27376;DHT22;14844;51.302;6.354;2022-11-11T02:10:08;7.10;99.90
27376;DHT22;14844;51.302;6.354;2022-11-11T02:12:34;7.10;99.90
27376;DHT22;14844;51.302;6.354;2022-11-11T02:15:18;7.10;99.90
27376;DHT22;14844;51.302;6.354;2022-11-11T02:17:45;7.20;99.90
27376;DHT22;14844;51.302;6.354;2022-11-11T02:20:14;7.20;99.90
27376;DHT22;14844;51.302;6.354;2022-11-11T02:22:55;7.20;99.90
27376;DHT22;14844;51.302;6.354;2022-11-11T02:25:24;7.20;99.90
27376;DHT22;14844;51.302;6.354;2022-11-11T02:27:51;7.10;99.90
27376;DHT22;14844;51.302;6.354;2022-11-11T02:30:21;7.20;99.90
27376;DHT22;14844;51.302;6.354;2022-11-11T02:32:49;7.20;99.90
27376;DHT22;14844;51.302;6.354;2022-11-11T02:35:18;7.30;99.90
27376;DHT22;14844;51.302;6.354;2022-11-11T02:37:45;7.30;99.90
27376;DHT22;14844;51.302;6.354;2022-11-11T02:40:17;7.30;99.90
27376;DHT22;14844;51.302;6.354;2022-11-11T02:42:42;7.40;99.90
27376;DHT22;14844;51.302;6.354;2022-11-11T02:45:08;7.40;99.90
27376;DHT22;14844;51.302;6.354;2022-11-11T02:47:34;7.30;99.90
27376;DHT22;14844;51.302;6.354;2022-11-11T02:49:59;7.20;99.90
27376;DHT22;14844;51.302;6.354;2022-11-11T02:52:25;7.20;99.90
27376;DHT22;14844;51.302;6.354;2022-11-11T02:54:50;7.10;99.90
27376;DHT22;14844;51.302;6.354;2022-11-11T02:57:16;7.10;99.90
27376;DHT22;14844;51.302;6.354;2022-11-11T02:59:42;7.10;99.90
27376;DHT22;14844;51.302;6.354;2022-11-11T03:02:08;7.00;99.90
27376;DHT22;14844;51.302;6.354;2022-11-11T03:04:34;6.90;99.90
27376;DHT22;14844;51.302;6.354;2022-11-11T03:06:59;6.80;99.90
27376;DHT22;14844;51.302;6.354;2022-11-11T03:09:25;6.70;99.90
27376;DHT22;14844;51.302;6.354;2022-11-11T03:11:51;6.60;99.90
27376;DHT22;14844;51.302;6.354;2022-11-11T03:14:17;6.60;99.90
27376;DHT22;14844;51.302;6.354;2022-11-11T03:16:42;6.40;99.90
27376;DHT22;14844;51.302;6.354;2022-11-11T03:19:26;6.40;99.90
27376;DHT22;14844;51.302;6.354;2022-11-11T03:21:52;6.30;99.90
27376;DHT22;14844;51.302;6.354;2022-11-11T03:24:20;6.20;99.90
27376;DHT22;14844;51.302;6.354;2022-11-11T03:26:46;6.20;99.90
27376;DHT22;14844;51.302;6.354;2022-11-11T03:29:11;6.20;99.90
27376;DHT22;14844;51.302;6.354;2022-11-11T03:31:37;6.20;99.90
27376;DHT22;14844;51.302;6.354;2022-11-11T03:34:03;6.20;99.90
27376;DHT22;14844;51.302;6.354;2022-11-11T03:36:44;6.10;99.90
27376;DHT22;14844;51.302;6.354;2022-11-11T03:39:28;6.10;99.90
27376;DHT22;14844;51.302;6.354;2022-11-11T03:41:55;6.10;99.90
27376;DHT22;14844;51.302;6.354;2022-11-11T03:44:20;6.10;99.90
27376;DHT22;14844;51.302;6.354;2022-11-11T03:46:46;6.20;99.90
27376;DHT22;14844;51.302;6.354;2022-11-11T03:49:11;6.20;99.90
27376;DHT22;14844;51.302;6.354;2022-11-11T03:51:37;6.20;99.90
27376;DHT22;14844;51.302;6.354;2022-11-11T03:54:02;6.30;99.90
27376;DHT22;14844;51.302;6.354;2022-11-11T03:56:28;6.40;99.90
27376;DHT22;14844;51.302;6.354;2022-11-11T03:58:53;6.50;99.90
27376;DHT22;14844;51.302;6.354;2022-11-11T04:01:19;6.40;99.90
27376;DHT22;14844;51.302;6.354;2022-11-11T04:04:03;6.40;99.90
27376;DHT22;14844;51.302;6.354;2022-11-11T04:06:47;6.40;99.90
27376;DHT22;14844;51.302;6.354;2022-11-11T04:09:31;6.30;99.90
27376;DHT22;14844;51.302;6.354;2022-11-11T04:12:15;6.30;99.90
27376;DHT22;14844;51.302;6.354;2022-11-11T04:14:41;6.20;99.90
27376;DHT22;14844;51.302;6.354;2022-11-11T04:17:25;6.20;99.90
27376;DHT22;14844;51.302;6.354;2022-11-11T04:19:50;6.20;99.90
27376;DHT22;14844;51.302;6.354;2022-11-11T04:22:40;6.20;99.90
27376;DHT22;14844;51.302;6.354;2022-11-11T04:25:06;6.20;99.90
27376;DHT22;14844;51.302;6.354;2022-11-11T04:27:50;6.10;99.90
27376;DHT22;14844;51.302;6.354;2022-11-11T04:30:36;6.20;99.90
27376;DHT22;14844;51.302;6.354;2022-11-11T04:33:01;6.10;99.90
27376;DHT22;14844;51.302;6.354;2022-11-11T04:35:27;6.00;99.90
27376;DHT22;14844;51.302;6.354;2022-11-11T04:37:52;5.90;99.90
27376;DHT22;14844;51.302;6.354;2022-11-11T04:40:38;5.80;99.90
27376;DHT22;14844;51.302;6.354;2022-11-11T04:43:22;5.70;99.90
27376;DHT22;14844;51.302;6.354;2022-11-11T04:45:48;5.60;99.90
27376;DHT22;14844;51.302;6.354;2022-11-11T04:48:13;5.50;99.90
27376;DHT22;14844;51.302;6.354;2022-11-11T04:50:42;5.40;99.90
27376;DHT22;14844;51.302;6.354;2022-11-11T04:53:10;5.30;99.90
27376;DHT22;14844;51.302;6.354;2022-11-11T04:55:37;5.20;99.90
27376;DHT22;14844;51.302;6.354;2022-11-11T04:58:23;5.10;99.90
27376;DHT22;14844;51.302;6.354;2022-11-11T05:00:49;5.10;99.90
27376;DHT22;14844;51.302;6.354;2022-11-11T05:03:15;5.10;99.90
27376;DHT22;14844;51.302;6.354;2022-11-11T05:05:50;5.10;99.90
27376;DHT22;14844;51.302;6.354;2022-11-11T05:08:35;5.10;99.90
27376;DHT22;14844;51.302;6.354;2022-11-11T05:11:21;5.10;99.90
27376;DHT22;14844;51.302;6.354;2022-11-11T05:13:47;5.10;99.90
27376;DHT22;14844;51.302;6.354;2022-11-11T05:16:35;5.10;99.90
27376;DHT22;14844;51.302;6.354;2022-11-11T05:19:21;5.10;99.90
27376;DHT22;14844;51.302;6.354;2022-11-11T05:24:39;5.10;99.90
27376;DHT22;14844;51.302;6.354;2022-11-11T05:27:23;5.10;99.90
27376;DHT22;14844;51.302;6.354;2022-11-11T05:29:49;5.10;99.90
27376;DHT22;14844;51.302;6.354;2022-11-11T05:32:16;5.00;99.90
27376;DHT22;14844;51.302;6.354;2022-11-11T05:34:43;5.00;99.90
27376;DHT22;14844;51.302;6.354;2022-11-11T05:37:09;5.10;99.90
27376;DHT22;14844;51.302;6.354;2022-11-11T05:39:35;5.10;99.90
27376;DHT22;14844;51.302;6.354;2022-11-11T05:42:00;5.10;99.90
27376;DHT22;14844;51.302;6.354;2022-11-11T05:44:26;5.10;99.90
27376;DHT22;14844;51.302;6.354;2022-11-11T05:46:51;5.10;99.90
27376;DHT22;14844;51.302;6.354;2022-11-11T05:49:17;5.10;99.90
27376;DHT22;14844;51.302;6.354;2022-11-11T05:51:43;5.00;99.90
27376;DHT22;14844;51.302;6.354;2022-11-11T05:54:09;5.00;99.90
27376;DHT22;14844;51.302;6.354;2022-11-11T05:56:35;5.00;99.90
27376;DHT22;14844;51.302;6.354;2022-11-11T05:59:01;5.00;99.90
27376;DHT22;14844;51.302;6.354;2022-11-11T06:01:26;4.90;99.90
27376;DHT22;14844;51.302;6.354;2022-11-11T06:03:52;4.90;99.90
27376;DHT22;14844;51.302;6.354;2022-11-11T06:06:17;4.90;99.90
27376;DHT22;14844;51.302;6.354;2022-11-11T06:08:43;4.90;99.90
27376;DHT22;14844;51.302;6.354;2022-11-11T06:11:08;5.00;99.90
27376;DHT22;14844;51.302;6.354;2022-11-11T06:13:34;4.90;99.90
27376;DHT22;14844;51.302;6.354;2022-11-11T06:16:00;4.90;99.90
27376;DHT22;14844;51.302;6.354;2022-11-11T06:18:26;4.90;99.90
27376;DHT22;14844;51.302;6.354;2022-11-11T06:20:55;4.80;99.90
27376;DHT22;14844;51.302;6.354;2022-11-11T06:23:23;4.80;99.90
27376;DHT22;14844;51.302;6.354;2022-11-11T06:25:49;4.80;99.90
27376;DHT22;14844;51.302;6.354;2022-11-11T06:28:34;4.90;99.90
27376;DHT22;14844;51.302;6.354;2022-11-11T06:31:00;4.90;99.90
27376;DHT22;14844;51.302;6.354;2022-11-11T06:33:26;4.90;99.90
27376;DHT22;14844;51.302;6.354;2022-11-11T06:35:52;4.90;99.90
27376;DHT22;14844;51.302;6.354;2022-11-11T06:38:17;4.90;99.90
27376;DHT22;14844;51.302;6.354;2022-11-11T06:40:43;4.90;99.90
27376;DHT22;14844;51.302;6.354;2022-11-11T06:43:09;4.90;99.90
27376;DHT22;14844;51.302;6.354;2022-11-11T06:45:35;4.90;99.90
27376;DHT22;14844;51.302;6.354;2022-11-11T06:48:02;5.00;99.90
27376;DHT22;14844;51.302;6.354;2022-11-11T06:50:28;5.00;99.90
27376;DHT22;14844;51.302;6.354;2022-11-11T06:52:54;4.90;99.90
27376;DHT22;14844;51.302;6.354;2022-11-11T06:55:20;4.90;99.90
27376;DHT22;14844;51.302;6.354;2022-11-11T06:57:46;4.90;99.90
27376;DHT22;14844;51.302;6.354;2022-11-11T07:00:12;4.90;99.90
27376;DHT22;14844;51.302;6.354;2022-11-11T07:02:37;4.90;99.90
27376;DHT22;14844;51.302;6.354;2022-11-11T07:05:03;4.90;99.90
27376;DHT22;14844;51.302;6.354;2022-11-11T07:07:29;4.90;99.90
27376;DHT22;14844;51.302;6.354;2022-11-11T07:09:54;5.00;99.90
27376;DHT22;14844;51.302;6.354;2022-11-11T07:12:21;5.10;99.90
27376;DHT22;14844;51.302;6.354;2022-11-11T07:14:46;5.20;99.90
27376;DHT22;14844;51.302;6.354;2022-11-11T07:17:12;5.30;99.90
27376;DHT22;14844;51.302;6.354;2022-11-11T07:19:38;5.40;99.90
27376;DHT22;14844;51.302;6.354;2022-11-11T07:22:03;5.50;99.90
27376;DHT22;14844;51.302;6.354;2022-11-11T07:24:29;5.60;99.90
27376;DHT22;14844;51.302;6.354;2022-11-11T07:26:55;5.50;99.90
27376;DHT22;14844;51.302;6.354;2022-11-11T07:29:20;5.60;99.90
27376;DHT22;14844;51.302;6.354;2022-11-11T07:31:46;5.70;99.90
27376;DHT22;14844;51.302;6.354;2022-11-11T07:34:11;5.70;99.90
27376;DHT22;14844;51.302;6.354;2022-11-11T07:36:37;5.80;99.90
27376;DHT22;14844;51.302;6.354;2022-11-11T07:39:03;5.90;99.90
27376;DHT22;14844;51.302;6.354;2022-11-11T07:41:28;5.90;99.90
27376;DHT22;14844;51.302;6.354;2022-11-11T07:43:54;6.00;99.90
27376;DHT22;14844;51.302;6.354;2022-11-11T07:46:19;6.10;99.90
27376;DHT22;14844;51.302;6.354;2022-11-11T07:48:45;6.30;99.90
27376;DHT22;14844;51.302;6.354;2022-11-11T07:51:10;6.30;99.90
27376;DHT22;14844;51.302;6.354;2022-11-11T07:53:36;6.50;99.90
27376;DHT22;14844;51.302;6.354;2022-11-11T07:56:01;6.60;99.90
27376;DHT22;14844;51.302;6.354;2022-11-11T07:58:27;6.70;99.90
27376;DHT22;14844;51.302;6.354;2022-11-11T08:00:53;6.80;99.90
27376;DHT22;14844;51.302;6.354;2022-11-11T08:03:18;6.80;99.90
27376;DHT22;14844;51.302;6.354;2022-11-11T08:05:44;6.90;99.90
27376;DHT22;14844;51.302;6.354;2022-11-11T08:08:10;7.10;99.90
27376;DHT22;14844;51.302;6.354;2022-11-11T08:10:36;7.20;99.90
27376;DHT22;14844;51.302;6.354;2022-11-11T08:13:02;7.30;99.90
27376;DHT22;14844;51.302;6.354;2022-11-11T08:15:46;7.40;99.90
27376;DHT22;14844;51.302;6.354;2022-11-11T08:18:11;7.50;99.90
27376;DHT22;14844;51.302;6.354;2022-11-11T08:20:37;7.60;99.90
27376;DHT22;14844;51.302;6.354;2022-11-11T08:23:03;7.80;99.90
27376;DHT22;14844;51.302;6.354;2022-11-11T08:25:30;7.90;99.90
27376;DHT22;14844;51.302;6.354;2022-11-11T08:28:00;8.10;99.90
27376;DHT22;14844;51.302;6.354;2022-11-11T08:30:26;8.20;99.90
27376;DHT22;14844;51.302;6.354;2022-11-11T08:32:58;8.40;99.90
27376;DHT22;14844;51.302;6.354;2022-11-11T08:35:24;8.60;99.90
27376;DHT22;14844;51.302;6.354;2022-11-11T08:37:49;8.80;99.90
27376;DHT22;14844;51.302;6.354;2022-11-11T08:40:15;9.00;99.90
27376;DHT22;14844;51.302;6.354;2022-11-11T08:42:41;9.30;99.90
27376;DHT22;14844;51.302;6.354;2022-11-11T08:45:07;9.40;99.90
27376;DHT22;14844;51.302;6.354;2022-11-11T08:47:34;9.70;99.90
27376;DHT22;14844;51.302;6.354;2022-11-11T08:50:00;9.90;99.90
27376;DHT22;14844;51.302;6.354;2022-11-11T08:52:26;10.10;99.90
27376;DHT22;14844;51.302;6.354;2022-11-11T08:54:51;10.30;99.90
27376;DHT22;14844;51.302;6.354;2022-11-11T08:57:17;10.40;99.90
27376;DHT22;14844;51.302;6.354;2022-11-11T08:59:42;10.70;99.90
27376;DHT22;14844;51.302;6.354;2022-11-11T09:02:12;10.80;99.90
27376;DHT22;14844;51.302;6.354;2022-11-11T09:04:38;11.00;99.90
27376;DHT22;14844;51.302;6.354;2022-11-11T09:07:05;11.10;99.90
27376;DHT22;14844;51.302;6.354;2022-11-11T09:09:31;11.20;99.90
27376;DHT22;14844;51.302;6.354;2022-11-11T09:11:56;11.30;99.90
27376;DHT22;14844;51.302;6.354;2022-11-11T09:14:22;11.50;99.90
27376;DHT22;14844;51.302;6.354;2022-11-11T09:16:47;11.70;99.90
27376;DHT22;14844;51.302;6.354;2022-11-11T09:19:13;11.70;99.90
27376;DHT22;14844;51.302;6.354;2022-11-11T09:21:38;11.80;99.90
27376;DHT22;14844;51.302;6.354;2022-11-11T09:24:04;12.00;99.90
27376;DHT22;14844;51.302;6.354;2022-11-11T09:26:30;12.10;99.90
27376;DHT22;14844;51.302;6.354;2022-11-11T09:28:55;12.20;99.90
27376;DHT22;14844;51.302;6.354;2022-11-11T09:31:21;12.20;99.90
27376;DHT22;14844;51.302;6.354;2022-11-11T09:33:49;12.10;99.90
27376;DHT22;14844;51.302;6.354;2022-11-11T09:36:14;12.10;99.90
27376;DHT22;14844;51.302;6.354;2022-11-11T09:38:40;12.20;99.90
27376;DHT22;14844;51.302;6.354;2022-11-11T09:41:37;12.50;99.90
27376;DHT22;14844;51.302;6.354;2022-11-11T09:44:01;12.70;99.90
27376;DHT22;14844;51.302;6.354;2022-11-11T09:46:43;12.90;99.90
27376;DHT22;14844;51.302;6.354;2022-11-11T09:49:37;13.10;99.90
27376;DHT22;14844;51.302;6.354;2022-11-11T09:52:15;13.10;99.90
27376;DHT22;14844;51.302;6.354;2022-11-11T09:55:14;13.30;99.90
27376;DHT22;14844;51.302;6.354;2022-11-11T09:57:59;13.40;99.90
27376;DHT22;14844;51.302;6.354;2022-11-11T10:00:30;13.30;99.90
27376;DHT22;14844;51.302;6.354;2022-11-11T10:03:18;13.60;99.90
27376;DHT22;14844;51.302;6.354;2022-11-11T10:06:02;13.70;99.90
27376;DHT22;14844;51.302;6.354;2022-11-11T10:08:43;13.80;99.90
27376;DHT22;14844;51.302;6.354;2022-11-11T10:11:21;13.80;99.90
27376;DHT22;14844;51.302;6.354;2022-11-11T10:13:49;13.80;99.90
27376;DHT22;14844;51.302;6.354;2022-11-11T10:21:58;13.70;99.90
27376;DHT22;14844;51.302;6.354;2022-11-11T10:24:41;13.80;99.90
27376;DHT22;14844;51.302;6.354;2022-11-11T10:27:21;14.00;99.90
27376;DHT22;14844;51.302;6.354;2022-11-11T10:29:48;14.10;99.90
27376;DHT22;14844;51.302;6.354;2022-11-11T10:32:26;14.20;99.90
27376;DHT22;14844;51.302;6.354;2022-11-11T10:34:53;14.20;99.90
27376;DHT22;14844;51.302;6.354;2022-11-11T10:37:20;14.50;99.90
27376;DHT22;14844;51.302;6.354;2022-11-11T10:40:02;14.50;99.90
27376;DHT22;14844;51.302;6.354;2022-11-11T10:42:29;14.50;99.90
27376;DHT22;14844;51.302;6.354;2022-11-11T10:44:59;14.40;99.90
27376;DHT22;14844;51.302;6.354;2022-11-11T10:47:31;14.50;99.90
27376;DHT22;14844;51.302;6.354;2022-11-11T10:50:24;14.40;99.90
27376;DHT22;14844;51.302;6.354;2022-11-11T10:52:57;14.50;99.90
27376;DHT22;14844;51.302;6.354;2022-11-11T10:55:32;14.70;99.90
27376;DHT22;14844;51.302;6.354;2022-11-11T10:58:09;14.80;99.90
27376;DHT22;14844;51.302;6.354;2022-11-11T11:00:36;15.00;99.90
27376;DHT22;14844;51.302;6.354;2022-11-11T11:03:13;15.10;99.90
27376;DHT22;14844;51.302;6.354;2022-11-11T11:05:47;15.20;99.90
27376;DHT22;14844;51.302;6.354;2022-11-11T11:08:20;15.20;99.90
27376;DHT22;14844;51.302;6.354;2022-11-11T11:10:59;15.40;99.90
27376;DHT22;14844;51.302;6.354;2022-11-11T11:13:39;15.30;99.90
27376;DHT22;14844;51.302;6.354;2022-11-11T11:16:16;15.30;99.90
27376;DHT22;14844;51.302;6.354;2022-11-11T11:18:42;15.40;99.90
27376;DHT22;14844;51.302;6.354;2022-11-11T11:21:09;15.50;99.90
27376;DHT22;14844;51.302;6.354;2022-11-11T11:26:00;15.60;99.90
27376;DHT22;14844;51.302;6.354;2022-11-11T11:28:27;15.60;99.90
27376;DHT22;14844;51.302;6.354;2022-11-11T11:31:02;15.70;99.90
27376;DHT22;14844;51.302;6.354;2022-11-11T11:33:49;15.70;99.90
27376;DHT22;14844;51.302;6.354;2022-11-11T11:36:16;15.70;99.90
27376;DHT22;14844;51.302;6.354;2022-11-11T11:38:44;15.70;99.90
27376;DHT22;14844;51.302;6.354;2022-11-11T11:44:00;15.90;99.90
27376;DHT22;14844;51.302;6.354;2022-11-11T11:46:36;16.00;99.90
27376;DHT22;14844;51.302;6.354;2022-11-11T12:00:23;16.30;99.90
27376;DHT22;14844;51.302;6.354;2022-11-11T12:06:17;16.30;99.90
27376;DHT22;14844;51.302;6.354;2022-11-11T12:14:55;15.90;99.90
27376;DHT22;14844;51.302;6.354;2022-11-11T12:17:41;16.00;99.90
27376;DHT22;14844;51.302;6.354;2022-11-11T12:30:32;16.30;99.90
27376;DHT22;14844;51.302;6.354;2022-11-11T12:35:56;16.40;99.90
27376;DHT22;14844;51.302;6.354;2022-11-11T12:44:04;16.30;99.90
27376;DHT22;14844;51.302;6.354;2022-11-11T12:55:25;16.20;99.90
27376;DHT22;14844;51.302;6.354;2022-11-11T13:01:21;16.40;99.90
27376;DHT22;14844;51.302;6.354;2022-11-11T13:04:11;16.50;99.90
27376;DHT22;14844;51.302;6.354;2022-11-11T13:09:28;16.50;99.90
27376;DHT22;14844;51.302;6.354;2022-11-11T13:17:18;16.70;99.90
27376;DHT22;14844;51.302;6.354;2022-11-11T13:19:55;16.80;99.90
27376;DHT22;14844;51.302;6.354;2022-11-11T13:22:28;17.00;99.90
27376;DHT22;14844;51.302;6.354;2022-11-11T13:24:55;17.10;99.90
27376;DHT22;14844;51.302;6.354;2022-11-11T13:30:06;17.40;99.90
27376;DHT22;14844;51.302;6.354;2022-11-11T13:32:59;17.30;99.90
27376;DHT22;14844;51.302;6.354;2022-11-11T13:35:47;17.30;99.90
27376;DHT22;14844;51.302;6.354;2022-11-11T13:38:27;17.40;99.90
27376;DHT22;14844;51.302;6.354;2022-11-11T13:40:56;17.40;99.90
27376;DHT22;14844;51.302;6.354;2022-11-11T13:43:28;17.40;99.90
27376;DHT22;14844;51.302;6.354;2022-11-11T13:45:57;17.20;99.90
27376;DHT22;14844;51.302;6.354;2022-11-11T13:48:35;17.20;99.90
27376;DHT22;14844;51.302;6.354;2022-11-11T13:51:19;17.10;99.90
27376;DHT22;14844;51.302;6.354;2022-11-11T13:53:47;16.90;99.90
27376;DHT22;14844;51.302;6.354;2022-11-11T13:58:47;16.80;99.90
27376;DHT22;14844;51.302;6.354;2022-11-11T14:01:15;16.80;99.90
27376;DHT22;14844;51.302;6.354;2022-11-11T14:11:28;16.60;99.90
27376;DHT22;14844;51.302;6.354;2022-11-11T14:13:55;16.50;99.90
27376;DHT22;14844;51.302;6.354;2022-11-11T14:21:48;16.40;99.90
27376;DHT22;14844;51.302;6.354;2022-11-11T14:24:50;16.30;99.90
27376;DHT22;14844;51.302;6.354;2022-11-11T14:27:19;16.20;99.90
27376;DHT22;14844;51.302;6.354;2022-11-11T14:29:56;16.10;99.90
27376;DHT22;14844;51.302;6.354;2022-11-11T14:32:42;15.90;99.90
27376;DHT22;14844;51.302;6.354;2022-11-11T14:35:36;15.80;99.90
27376;DHT22;14844;51.302;6.354;2022-11-11T14:38:21;15.70;99.90
27376;DHT22;14844;51.302;6.354;2022-11-11T14:40:50;15.50;99.90
27376;DHT22;14844;51.302;6.354;2022-11-11T14:46:02;15.20;99.90
27376;DHT22;14844;51.302;6.354;2022-11-11T14:51:40;14.90;99.90
27376;DHT22;14844;51.302;6.354;2022-11-11T14:54:35;14.80;99.90
27376;DHT22;14844;51.302;6.354;2022-11-11T14:57:08;14.60;99.90
27376;DHT22;14844;51.302;6.354;2022-11-11T14:59:35;14.50;99.90
27376;DHT22;14844;51.302;6.354;2022-11-11T15:02:03;14.30;99.90
27376;DHT22;14844;51.302;6.354;2022-11-11T15:04:37;14.20;99.90
27376;DHT22;14844;51.302;6.354;2022-11-11T15:07:04;14.10;99.90
27376;DHT22;14844;51.302;6.354;2022-11-11T15:16:05;13.70;99.90
27376;DHT22;14844;51.302;6.354;2022-11-11T15:24:54;13.10;99.90
27376;DHT22;14844;51.302;6.354;2022-11-11T15:28:32;12.90;99.90
27376;DHT22;14844;51.302;6.354;2022-11-11T15:37:03;12.30;99.90
27376;DHT22;14844;51.302;6.354;2022-11-11T15:39:06;12.00;99.90
27376;DHT22;14844;51.302;6.354;2022-11-11T15:41:37;11.80;99.90
27376;DHT22;14844;51.302;6.354;2022-11-11T15:44:21;11.60;99.90
27376;DHT22;14844;51.302;6.354;2022-11-11T15:46:48;11.40;99.90
27376;DHT22;14844;51.302;6.354;2022-11-11T15:49:17;11.20;99.90
27376;DHT22;14844;51.302;6.354;2022-11-11T15:52:00;11.00;99.90
27376;DHT22;14844;51.302;6.354;2022-11-11T15:54:25;10.80;99.90
27376;DHT22;14844;51.302;6.354;2022-11-11T15:56:51;10.60;99.90
27376;DHT22;14844;51.302;6.354;2022-11-11T15:59:23;10.40;99.90
27376;DHT22;14844;51.302;6.354;2022-11-11T16:01:52;10.20;99.90
27376;DHT22;14844;51.302;6.354;2022-11-11T16:04:20;10.10;99.90
27376;DHT22;14844;51.302;6.354;2022-11-11T16:06:47;9.90;99.90
27376;DHT22;14844;51.302;6.354;2022-11-11T16:09:18;9.80;99.90
27376;DHT22;14844;51.302;6.354;2022-11-11T16:11:46;9.70;99.90
27376;DHT22;14844;51.302;6.354;2022-11-11T16:14:26;9.50;99.90
27376;DHT22;14844;51.302;6.354;2022-11-11T16:16:52;9.30;99.90
27376;DHT22;14844;51.302;6.354;2022-11-11T16:19:39;9.30;99.90
27376;DHT22;14844;51.302;6.354;2022-11-11T16:22:20;9.20;99.90
27376;DHT22;14844;51.302;6.354;2022-11-11T16:24:47;9.10;99.90
27376;DHT22;14844;51.302;6.354;2022-11-11T16:27:23;8.90;99.90
27376;DHT22;14844;51.302;6.354;2022-11-11T16:29:50;8.80;99.90
27376;DHT22;14844;51.302;6.354;2022-11-11T16:32:32;8.70;99.90
27376;DHT22;14844;51.302;6.354;2022-11-11T16:34:58;8.60;99.90
27376;DHT22;14844;51.302;6.354;2022-11-11T16:37:24;8.40;99.90
27376;DHT22;14844;51.302;6.354;2022-11-11T16:39:49;8.30;99.90
27376;DHT22;14844;51.302;6.354;2022-11-11T16:42:26;8.30;99.90
27376;DHT22;14844;51.302;6.354;2022-11-11T16:45:00;8.20;99.90
27376;DHT22;14844;51.302;6.354;2022-11-11T16:50:18;8.10;99.90
27376;DHT22;14844;51.302;6.354;2022-11-11T16:52:53;8.10;99.90
27376;DHT22;14844;51.302;6.354;2022-11-11T16:55:28;8.00;99.90
27376;DHT22;14844;51.302;6.354;2022-11-11T16:58:02;8.00;99.90
27376;DHT22;14844;51.302;6.354;2022-11-11T17:00:34;7.90;99.90
27376;DHT22;14844;51.302;6.354;2022-11-11T17:03:26;7.90;99.90
27376;DHT22;14844;51.302;6.354;2022-11-11T17:05:52;7.90;99.90
27376;DHT22;14844;51.302;6.354;2022-11-11T17:08:37;7.90;99.90
27376;DHT22;14844;51.302;6.354;2022-11-11T17:11:05;7.90;99.90
27376;DHT22;14844;51.302;6.354;2022-11-11T17:13:35;7.90;99.90
27376;DHT22;14844;51.302;6.354;2022-11-11T17:16:05;7.90;99.90
27376;DHT22;14844;51.302;6.354;2022-11-11T17:18:36;7.90;99.90
27376;DHT22;14844;51.302;6.354;2022-11-11T17:21:03;7.80;99.90
27376;DHT22;14844;51.302;6.354;2022-11-11T17:23:29;7.90;99.90
27376;DHT22;14844;51.302;6.354;2022-11-11T17:25:56;7.80;99.90
27376;DHT22;14844;51.302;6.354;2022-11-11T17:28:24;7.80;99.90
27376;DHT22;14844;51.302;6.354;2022-11-11T17:30:50;7.70;99.90
27376;DHT22;14844;51.302;6.354;2022-11-11T17:33:15;7.80;99.90
27376;DHT22;14844;51.302;6.354;2022-11-11T17:35:49;7.80;99.90
27376;DHT22;14844;51.302;6.354;2022-11-11T17:38:15;7.70;99.90
27376;DHT22;14844;51.302;6.354;2022-11-11T17:40:45;7.60;99.90
27376;DHT22;14844;51.302;6.354;2022-11-11T17:43:12;7.60;99.90
27376;DHT22;14844;51.302;6.354;2022-11-11T17:45:37;7.60;99.90
27376;DHT22;14844;51.302;6.354;2022-11-11T17:48:03;7.60;99.90
27376;DHT22;14844;51.302;6.354;2022-11-11T17:50:29;7.60;99.90
27376;DHT22;14844;51.302;6.354;2022-11-11T17:52:54;7.50;99.90
27376;DHT22;14844;51.302;6.354;2022-11-11T17:55:21;7.40;99.90
27376;DHT22;14844;51.302;6.354;2022-11-11T17:57:47;7.30;99.90
27376;DHT22;14844;51.302;6.354;2022-11-11T18:00:13;7.20;99.90
27376;DHT22;14844;51.302;6.354;2022-11-11T18:02:39;7.10;99.90
27376;DHT22;14844;51.302;6.354;2022-11-11T18:05:05;7.00;99.90